Aérodrome :
LOGIN :

S'inscrire | Disclaimer

   EN    FR    IT 

 










Légende :    VFR   VFR Marginal   IFR   IFR Intensif   IFR Très Intensif
Visi : 
Plafond : 
>= 8 km
>= 3000ft
5 à 8 km
1000 à 3000 ft
1500m à 5 km
500 à 1000 ft
800 à 1500m
200 à 500 ft
< 800m
< 200 ft
Symboles :   Orages  Brouillard  Fortes neiges  Fortes précipitations  Vent > 20 kt
SIGMETs :   Divers  Orages  Givrage  Turbulence  Onde Orograph.  Cendres Volcan.







- Altitude de l'aérodrome : 459 ft
- Code IATA : CER
- Voir les cartes d'approche


LFRC - Cherbourg / Maupertus

DERNIER METAR :
  • 160230Z AUTO 21008KT 9999 FEW010 SCT014 BKN040 12/12 Q1016

METARs EXPIRÉS :
  • 160200Z AUTO 23009KT 9999 SCT012 BKN047 BKN054 12/12 Q1016
  • 160130Z AUTO 22008KT 190V250 9999 BKN010 OVC015 13/12 Q1016
  • 160100Z AUTO 23009KT 9999 BKN010 BKN015 OVC026 13/12 Q1017
  • 160030Z AUTO 23010KT 9999 FEW008 BKN012 BKN023 13/12 Q1016
  • 160000Z AUTO 22009KT 9999 SCT010 BKN016 OVC024 12/12 Q1016

Prévision TAF périmée.
Pas de NOTAMs connus pour ce terrain.



MET'MAP, la Météo Aéronautique d'un coup d'oeil ! - Copyright ORBIFLY Décembre 2007 - Disclaimer

ORBIFLY MET'MAP TEAM :

Programmation & Développement : Alexandra Zaïnal
Conception & Développement : Baudouin d'Aumeries
Co-Programmation & Développement : Marc-Olivier Méhu
Soutien technique & logistique : Manuel Goepfert

Contact : metmap@orbifly.com




SOURCES & CREDITS :

   NOAA